Uni-arise — 3FSV7 — position and weather

sailwx.info

Track history (hours):
 
Tides and Currents Weather Stations Pressure Air Temp Water Temp Dewpoint Dewpoint Depression Visibility Wind Speed Wind Dir Waves Ship Positions

Uni-arise

Last reported at 2016-Jul-24 08:18 UTC. Time now 2016-Jul-25 20:00 UTC.
Position N 25°12' E 121°16'.

Length 165 m; draft 8 m.

Type: Ship (hazmat cat D). MMSI: 351608000.

Date/timePositionNaut miles runAvg speedWind from/ knotsBaromVisibWave heightAir tempDewpointWater temp
2016-Jul-24 08:18N 25°12' E 121°16'1 0.7
2016-Jul-24 06:15N 25°14' E 121°16'912.0
2016-Jul-24 05:29N 25°11' E 121°06'63 4.2
2016-Jul-23 14:31N 24°16' E 120°31'5613.6
2016-Jul-23 10:23N 23°31' E 119°55'3913.6
2016-Jul-23 07:33N 22°52' E 119°59'1414.1
2016-Jul-23 06:33N 22°40' E 120°06'12 5.9
2016-Jul-23 04:30N 22°35' E 120°18'0 0.0
2016-Jul-23 03:30N 22°35' E 120°18'0 0.0
2016-Jul-23 02:24N 22°35' E 120°18'0 0.0
2016-Jul-23 01:30N 22°35' E 120°18'0 0.0
2016-Jul-23 00:30N 22°35' E 120°18'0 0.0
2016-Jul-22 23:30N 22°35' E 120°18'0 0.0
2016-Jul-22 22:30N 22°35' E 120°18'0 0.0
2016-Jul-22 21:30N 22°35' E 120°18'0 0.0
2016-Jul-22 20:24N 22°35' E 120°18'0 0.0
2016-Jul-22 19:12N 22°35' E 120°18'0 0.0
2016-Jul-22 18:30N 22°35' E 120°18'0 0.0
2016-Jul-22 17:30N 22°35' E 120°18'0 0.0
2016-Jul-22 16:30N 22°35' E 120°18'4 4.2
2016-Jul-22 15:33N 22°32' E 120°15'4 3.9
2016-Jul-22 14:33N 22°30' E 120°11'1 0.7
2016-Jul-22 13:33N 22°31' E 120°11'1413.1
2016-Jul-22 12:30N 22°30' E 119°57'1514.6
2016-Jul-22 11:29N 22°29' E 119°40'30815.5
2016-Jul-21 15:33N 22°19' E 114°07'1 0.4
2016-Jul-21 13:27N 22°20' E 114°08'0 0.0
2016-Jul-21 12:09N 22°20' E 114°08'0 0.0
2016-Jul-21 11:09N 22°20' E 114°08'0 0.0
2016-Jul-21 10:27N 22°20' E 114°08'0 0.0
2016-Jul-21 08:15N 22°20' E 114°08'0 0.0
2016-Jul-21 00:33N 22°20' E 114°08'  
2016-Jul-14 18:21N 33°55' E 134°53'1214.6
2016-Jul-14 17:32N 34°06' E 134°57'1413.8
2016-Jul-14 16:33N 34°20' E 134°59'1616.1
2016-Jul-14 15:33N 34°32' E 135°11'8 7.3
2016-Jul-14 14:30N 34°40' E 135°14'0 0.1
2016-Jul-14 13:30N 34°40' E 135°14'0 0.0
2016-Jul-14 12:30N 34°40' E 135°14'0 0.0
2016-Jul-14 11:30N 34°40' E 135°14'0 0.0
2016-Jul-14 10:30N 34°40' E 135°14'0 0.0
2016-Jul-14 09:24N 34°40' E 135°14'0 0.1
2016-Jul-14 08:30N 34°40' E 135°14'  
Track history (hours):
 
Tides and Currents Weather Stations Pressure Air Temp Water Temp Dewpoint Dewpoint Depression Visibility Wind Speed Wind Dir Waves Ship Positions

Uni-arise

Last reported at 2016-Jul-24 08:18 UTC. Time now 2016-Jul-25 20:00 UTC.
Position N 25°12' E 121°16'.

Length 165 m; draft 8 m.

Type: Ship (hazmat cat D). MMSI: 351608000.

Date/timePositionNaut miles runAvg speedWind from/ knotsBaromVisibWave heightAir tempDewpointWater temp
2016-Jul-24 08:18N 25°12' E 121°16'1 0.7
2016-Jul-24 06:15N 25°14' E 121°16'912.0
2016-Jul-24 05:29N 25°11' E 121°06'63 4.2
2016-Jul-23 14:31N 24°16' E 120°31'5613.6
2016-Jul-23 10:23N 23°31' E 119°55'3913.6
2016-Jul-23 07:33N 22°52' E 119°59'1414.1
2016-Jul-23 06:33N 22°40' E 120°06'12 5.9
2016-Jul-23 04:30N 22°35' E 120°18'0 0.0
2016-Jul-23 03:30N 22°35' E 120°18'0 0.0
2016-Jul-23 02:24N 22°35' E 120°18'0 0.0
2016-Jul-23 01:30N 22°35' E 120°18'0 0.0
2016-Jul-23 00:30N 22°35' E 120°18'0 0.0
2016-Jul-22 23:30N 22°35' E 120°18'0 0.0
2016-Jul-22 22:30N 22°35' E 120°18'0 0.0
2016-Jul-22 21:30N 22°35' E 120°18'0 0.0
2016-Jul-22 20:24N 22°35' E 120°18'0 0.0
2016-Jul-22 19:12N 22°35' E 120°18'0 0.0
2016-Jul-22 18:30N 22°35' E 120°18'0 0.0
2016-Jul-22 17:30N 22°35' E 120°18'0 0.0
2016-Jul-22 16:30N 22°35' E 120°18'4 4.2
2016-Jul-22 15:33N 22°32' E 120°15'4 3.9
2016-Jul-22 14:33N 22°30' E 120°11'1 0.7
2016-Jul-22 13:33N 22°31' E 120°11'1413.1
2016-Jul-22 12:30N 22°30' E 119°57'1514.6
2016-Jul-22 11:29N 22°29' E 119°40'30815.5
2016-Jul-21 15:33N 22°19' E 114°07'1 0.4
2016-Jul-21 13:27N 22°20' E 114°08'0 0.0
2016-Jul-21 12:09N 22°20' E 114°08'0 0.0
2016-Jul-21 11:09N 22°20' E 114°08'0 0.0
2016-Jul-21 10:27N 22°20' E 114°08'0 0.0
2016-Jul-21 08:15N 22°20' E 114°08'0 0.0
2016-Jul-21 00:33N 22°20' E 114°08'  
2016-Jul-14 18:21N 33°55' E 134°53'1214.6
2016-Jul-14 17:32N 34°06' E 134°57'1413.8
2016-Jul-14 16:33N 34°20' E 134°59'1616.1
2016-Jul-14 15:33N 34°32' E 135°11'8 7.3
2016-Jul-14 14:30N 34°40' E 135°14'0 0.1
2016-Jul-14 13:30N 34°40' E 135°14'0 0.0
2016-Jul-14 12:30N 34°40' E 135°14'0 0.0
2016-Jul-14 11:30N 34°40' E 135°14'0 0.0
2016-Jul-14 10:30N 34°40' E 135°14'0 0.0
2016-Jul-14 09:24N 34°40' E 135°14'0 0.1
2016-Jul-14 08:30N 34°40' E 135°14'  

Dump ship's entire track history